sensor_id;sensor_type;location;lat;lon;timestamp;P1;durP1;ratioP1;P2;durP2;ratioP2
72301;SDS011;60235;52.234;5.186;2023-09-12T00:01:04;65.93;;;29.95;;
72301;SDS011;60235;52.234;5.186;2023-09-12T00:03:31;71.82;;;31.10;;
72301;SDS011;60235;52.234;5.186;2023-09-12T00:05:58;72.35;;;30.73;;
72301;SDS011;60235;52.234;5.186;2023-09-12T00:08:24;69.88;;;30.95;;
72301;SDS011;60235;52.234;5.186;2023-09-12T00:11:00;67.82;;;31.75;;
72301;SDS011;60235;52.234;5.186;2023-09-12T00:13:26;71.70;;;30.92;;
72301;SDS011;60235;52.234;5.186;2023-09-12T00:15:52;70.93;;;31.95;;
72301;SDS011;60235;52.234;5.186;2023-09-12T00:18:19;74.57;;;31.02;;
72301;SDS011;60235;52.234;5.186;2023-09-12T00:20:45;68.70;;;29.77;;
72301;SDS011;60235;52.234;5.186;2023-09-12T00:23:11;66.38;;;29.95;;
72301;SDS011;60235;52.234;5.186;2023-09-12T00:25:37;74.38;;;31.38;;
72301;SDS011;60235;52.234;5.186;2023-09-12T00:28:03;68.20;;;29.00;;
72301;SDS011;60235;52.234;5.186;2023-09-12T00:30:29;69.32;;;29.25;;
72301;SDS011;60235;52.234;5.186;2023-09-12T00:32:55;70.85;;;30.85;;
72301;SDS011;60235;52.234;5.186;2023-09-12T00:35:21;70.43;;;29.67;;
72301;SDS011;60235;52.234;5.186;2023-09-12T00:37:47;67.70;;;30.27;;
72301;SDS011;60235;52.234;5.186;2023-09-12T00:40:13;72.47;;;29.95;;
72301;SDS011;60235;52.234;5.186;2023-09-12T00:42:39;69.35;;;30.27;;
72301;SDS011;60235;52.234;5.186;2023-09-12T00:45:06;72.93;;;30.85;;
72301;SDS011;60235;52.234;5.186;2023-09-12T00:47:32;80.82;;;32.85;;
72301;SDS011;60235;52.234;5.186;2023-09-12T00:49:58;62.58;;;27.98;;
72301;SDS011;60235;52.234;5.186;2023-09-12T00:52:25;71.63;;;31.00;;
72301;SDS011;60235;52.234;5.186;2023-09-12T00:54:52;67.20;;;29.42;;
72301;SDS011;60235;52.234;5.186;2023-09-12T00:57:18;68.97;;;29.27;;
72301;SDS011;60235;52.234;5.186;2023-09-12T00:59:45;68.60;;;28.27;;
72301;SDS011;60235;52.234;5.186;2023-09-12T01:02:11;71.88;;;30.67;;
72301;SDS011;60235;52.234;5.186;2023-09-12T01:04:37;70.68;;;30.75;;
72301;SDS011;60235;52.234;5.186;2023-09-12T01:07:03;69.82;;;29.83;;
72301;SDS011;60235;52.234;5.186;2023-09-12T01:09:30;68.03;;;29.10;;
72301;SDS011;60235;52.234;5.186;2023-09-12T01:11:56;66.90;;;29.05;;
72301;SDS011;60235;52.234;5.186;2023-09-12T01:14:22;69.25;;;28.00;;
72301;SDS011;60235;52.234;5.186;2023-09-12T01:16:48;67.03;;;28.52;;
72301;SDS011;60235;52.234;5.186;2023-09-12T01:19:15;69.15;;;29.23;;
72301;SDS011;60235;52.234;5.186;2023-09-12T01:27:25;69.97;;;29.50;;
72301;SDS011;60235;52.234;5.186;2023-09-12T01:29:57;68.85;;;28.67;;
72301;SDS011;60235;52.234;5.186;2023-09-12T01:32:23;62.42;;;27.23;;
72301;SDS011;60235;52.234;5.186;2023-09-12T01:34:50;64.40;;;27.23;;
72301;SDS011;60235;52.234;5.186;2023-09-12T01:37:15;64.05;;;27.50;;
72301;SDS011;60235;52.234;5.186;2023-09-12T01:39:42;64.20;;;26.85;;
72301;SDS011;60235;52.234;5.186;2023-09-12T01:42:08;69.72;;;28.73;;
72301;SDS011;60235;52.234;5.186;2023-09-12T01:44:37;65.32;;;28.15;;
72301;SDS011;60235;52.234;5.186;2023-09-12T01:47:03;71.20;;;29.23;;
72301;SDS011;60235;52.234;5.186;2023-09-12T01:49:30;65.20;;;28.38;;
72301;SDS011;60235;52.234;5.186;2023-09-12T01:51:57;68.82;;;28.20;;
72301;SDS011;60235;52.234;5.186;2023-09-12T01:54:24;64.45;;;26.60;;
72301;SDS011;60235;52.234;5.186;2023-09-12T01:56:51;64.78;;;27.38;;
72301;SDS011;60235;52.234;5.186;2023-09-12T01:59:17;60.72;;;25.92;;
72301;SDS011;60235;52.234;5.186;2023-09-12T02:01:43;62.03;;;25.17;;
72301;SDS011;60235;52.234;5.186;2023-09-12T02:04:09;58.35;;;25.55;;
72301;SDS011;60235;52.234;5.186;2023-09-12T02:06:35;52.28;;;22.75;;
72301;SDS011;60235;52.234;5.186;2023-09-12T02:09:01;53.22;;;23.38;;
72301;SDS011;60235;52.234;5.186;2023-09-12T02:11:27;52.20;;;23.67;;
72301;SDS011;60235;52.234;5.186;2023-09-12T02:13:53;52.38;;;22.83;;
72301;SDS011;60235;52.234;5.186;2023-09-12T02:16:19;56.47;;;24.42;;
72301;SDS011;60235;52.234;5.186;2023-09-12T02:18:45;55.10;;;23.88;;
72301;SDS011;60235;52.234;5.186;2023-09-12T02:21:11;46.33;;;21.50;;
72301;SDS011;60235;52.234;5.186;2023-09-12T02:23:37;47.70;;;22.42;;
72301;SDS011;60235;52.234;5.186;2023-09-12T02:26:03;52.78;;;23.70;;
72301;SDS011;60235;52.234;5.186;2023-09-12T02:28:29;53.97;;;23.65;;
72301;SDS011;60235;52.234;5.186;2023-09-12T02:30:55;50.72;;;23.58;;
72301;SDS011;60235;52.234;5.186;2023-09-12T02:33:21;51.75;;;23.88;;
72301;SDS011;60235;52.234;5.186;2023-09-12T02:35:47;47.95;;;22.75;;
72301;SDS011;60235;52.234;5.186;2023-09-12T02:38:13;49.65;;;23.75;;
72301;SDS011;60235;52.234;5.186;2023-09-12T02:40:39;52.63;;;24.20;;
72301;SDS011;60235;52.234;5.186;2023-09-12T02:43:05;55.05;;;24.35;;
72301;SDS011;60235;52.234;5.186;2023-09-12T02:45:31;53.30;;;23.42;;
72301;SDS011;60235;52.234;5.186;2023-09-12T02:47:57;50.35;;;22.23;;
72301;SDS011;60235;52.234;5.186;2023-09-12T02:50:23;53.35;;;22.63;;
72301;SDS011;60235;52.234;5.186;2023-09-12T02:52:49;54.30;;;23.50;;
72301;SDS011;60235;52.234;5.186;2023-09-12T02:55:15;58.58;;;24.20;;
72301;SDS011;60235;52.234;5.186;2023-09-12T02:57:41;54.35;;;25.73;;
72301;SDS011;60235;52.234;5.186;2023-09-12T03:00:07;58.85;;;24.10;;
72301;SDS011;60235;52.234;5.186;2023-09-12T03:02:34;60.92;;;24.33;;
72301;SDS011;60235;52.234;5.186;2023-09-12T03:05:00;55.50;;;25.08;;
72301;SDS011;60235;52.234;5.186;2023-09-12T03:07:26;60.80;;;25.27;;
72301;SDS011;60235;52.234;5.186;2023-09-12T03:09:52;53.97;;;23.63;;
72301;SDS011;60235;52.234;5.186;2023-09-12T03:12:18;61.08;;;25.58;;
72301;SDS011;60235;52.234;5.186;2023-09-12T03:14:44;58.50;;;24.48;;
72301;SDS011;60235;52.234;5.186;2023-09-12T03:17:10;66.38;;;26.65;;
72301;SDS011;60235;52.234;5.186;2023-09-12T03:19:36;90.03;;;25.45;;
72301;SDS011;60235;52.234;5.186;2023-09-12T03:22:03;88.80;;;28.25;;
72301;SDS011;60235;52.234;5.186;2023-09-12T03:24:29;65.30;;;26.30;;
72301;SDS011;60235;52.234;5.186;2023-09-12T03:26:56;72.30;;;28.83;;
72301;SDS011;60235;52.234;5.186;2023-09-12T03:29:22;67.82;;;25.10;;
72301;SDS011;60235;52.234;5.186;2023-09-12T03:31:48;62.08;;;24.80;;
72301;SDS011;60235;52.234;5.186;2023-09-12T03:34:14;72.35;;;24.60;;
72301;SDS011;60235;52.234;5.186;2023-09-12T03:36:43;66.05;;;23.92;;
72301;SDS011;60235;52.234;5.186;2023-09-12T03:39:09;72.25;;;27.30;;
72301;SDS011;60235;52.234;5.186;2023-09-12T03:41:38;65.70;;;26.75;;
72301;SDS011;60235;52.234;5.186;2023-09-12T03:44:04;59.70;;;25.27;;
72301;SDS011;60235;52.234;5.186;2023-09-12T03:46:30;70.05;;;24.77;;
72301;SDS011;60235;52.234;5.186;2023-09-12T03:48:56;62.10;;;24.55;;
72301;SDS011;60235;52.234;5.186;2023-09-12T03:51:22;59.13;;;24.17;;
72301;SDS011;60235;52.234;5.186;2023-09-12T03:53:48;68.43;;;25.23;;
72301;SDS011;60235;52.234;5.186;2023-09-12T03:56:15;59.70;;;25.45;;
72301;SDS011;60235;52.234;5.186;2023-09-12T03:58:41;56.63;;;24.45;;
72301;SDS011;60235;52.234;5.186;2023-09-12T04:01:07;53.45;;;25.02;;
72301;SDS011;60235;52.234;5.186;2023-09-12T04:03:33;51.40;;;24.27;;
72301;SDS011;60235;52.234;5.186;2023-09-12T04:05:59;61.10;;;26.20;;
72301;SDS011;60235;52.234;5.186;2023-09-12T04:08:25;50.60;;;23.60;;
72301;SDS011;60235;52.234;5.186;2023-09-12T04:10:51;57.63;;;25.77;;
72301;SDS011;60235;52.234;5.186;2023-09-12T04:13:17;58.65;;;25.52;;
72301;SDS011;60235;52.234;5.186;2023-09-12T04:15:43;57.22;;;24.45;;
72301;SDS011;60235;52.234;5.186;2023-09-12T04:18:09;51.72;;;23.40;;
72301;SDS011;60235;52.234;5.186;2023-09-12T04:20:35;47.10;;;22.65;;
72301;SDS011;60235;52.234;5.186;2023-09-12T04:23:01;58.50;;;25.23;;
72301;SDS011;60235;52.234;5.186;2023-09-12T04:25:28;52.90;;;24.63;;
72301;SDS011;60235;52.234;5.186;2023-09-12T04:27:54;56.17;;;24.25;;
72301;SDS011;60235;52.234;5.186;2023-09-12T04:30:20;52.25;;;23.98;;
72301;SDS011;60235;52.234;5.186;2023-09-12T04:32:47;52.78;;;23.50;;
72301;SDS011;60235;52.234;5.186;2023-09-12T04:35:13;48.70;;;23.77;;
72301;SDS011;60235;52.234;5.186;2023-09-12T04:37:39;53.53;;;23.27;;
72301;SDS011;60235;52.234;5.186;2023-09-12T04:40:06;52.75;;;23.65;;
72301;SDS011;60235;52.234;5.186;2023-09-12T04:42:32;52.60;;;23.15;;
72301;SDS011;60235;52.234;5.186;2023-09-12T04:44:58;51.60;;;24.05;;
72301;SDS011;60235;52.234;5.186;2023-09-12T04:47:24;55.95;;;24.40;;
72301;SDS011;60235;52.234;5.186;2023-09-12T04:49:50;58.08;;;24.08;;
72301;SDS011;60235;52.234;5.186;2023-09-12T04:52:16;56.85;;;25.95;;
72301;SDS011;60235;52.234;5.186;2023-09-12T04:54:44;55.15;;;23.90;;
72301;SDS011;60235;52.234;5.186;2023-09-12T04:57:10;53.28;;;24.95;;
72301;SDS011;60235;52.234;5.186;2023-09-12T04:59:36;59.83;;;25.70;;
72301;SDS011;60235;52.234;5.186;2023-09-12T05:02:02;58.53;;;24.80;;
72301;SDS011;60235;52.234;5.186;2023-09-12T05:04:28;55.10;;;24.52;;
72301;SDS011;60235;52.234;5.186;2023-09-12T05:06:54;58.03;;;24.00;;
72301;SDS011;60235;52.234;5.186;2023-09-12T05:09:20;65.15;;;26.23;;
72301;SDS011;60235;52.234;5.186;2023-09-12T05:11:46;59.90;;;24.85;;
72301;SDS011;60235;52.234;5.186;2023-09-12T05:14:12;62.70;;;26.60;;
72301;SDS011;60235;52.234;5.186;2023-09-12T05:16:38;65.50;;;28.52;;
72301;SDS011;60235;52.234;5.186;2023-09-12T05:19:04;66.70;;;27.63;;
72301;SDS011;60235;52.234;5.186;2023-09-12T05:21:30;65.50;;;27.15;;
72301;SDS011;60235;52.234;5.186;2023-09-12T05:23:56;58.88;;;26.15;;
72301;SDS011;60235;52.234;5.186;2023-09-12T05:26:22;65.25;;;27.48;;
72301;SDS011;60235;52.234;5.186;2023-09-12T05:28:49;63.28;;;26.95;;
72301;SDS011;60235;52.234;5.186;2023-09-12T05:31:15;69.10;;;28.58;;
72301;SDS011;60235;52.234;5.186;2023-09-12T05:33:41;72.72;;;28.55;;
72301;SDS011;60235;52.234;5.186;2023-09-12T05:36:07;73.70;;;29.55;;
72301;SDS011;60235;52.234;5.186;2023-09-12T05:38:33;75.80;;;30.48;;
72301;SDS011;60235;52.234;5.186;2023-09-12T05:40:59;74.97;;;31.30;;
72301;SDS011;60235;52.234;5.186;2023-09-12T05:43:25;88.28;;;32.63;;
72301;SDS011;60235;52.234;5.186;2023-09-12T05:45:51;75.03;;;30.77;;
72301;SDS011;60235;52.234;5.186;2023-09-12T05:48:18;79.95;;;31.17;;
72301;SDS011;60235;52.234;5.186;2023-09-12T05:50:44;74.38;;;30.55;;
72301;SDS011;60235;52.234;5.186;2023-09-12T05:53:10;72.28;;;31.13;;
72301;SDS011;60235;52.234;5.186;2023-09-12T05:55:36;77.22;;;31.13;;
72301;SDS011;60235;52.234;5.186;2023-09-12T05:58:02;75.47;;;29.73;;
72301;SDS011;60235;52.234;5.186;2023-09-12T06:00:30;79.75;;;30.83;;
72301;SDS011;60235;52.234;5.186;2023-09-12T06:02:56;75.20;;;29.65;;
72301;SDS011;60235;52.234;5.186;2023-09-12T06:05:23;77.68;;;29.77;;
72301;SDS011;60235;52.234;5.186;2023-09-12T06:07:49;77.47;;;30.05;;
72301;SDS011;60235;52.234;5.186;2023-09-12T06:10:15;70.10;;;28.08;;
72301;SDS011;60235;52.234;5.186;2023-09-12T06:12:41;74.45;;;29.95;;
72301;SDS011;60235;52.234;5.186;2023-09-12T06:15:07;76.90;;;31.77;;
72301;SDS011;60235;52.234;5.186;2023-09-12T06:17:33;67.80;;;27.90;;
72301;SDS011;60235;52.234;5.186;2023-09-12T06:19:59;73.38;;;28.73;;
72301;SDS011;60235;52.234;5.186;2023-09-12T06:22:25;74.93;;;28.67;;
72301;SDS011;60235;52.234;5.186;2023-09-12T06:24:51;63.92;;;26.48;;
72301;SDS011;60235;52.234;5.186;2023-09-12T06:27:17;72.18;;;27.95;;
72301;SDS011;60235;52.234;5.186;2023-09-12T06:29:44;66.03;;;26.50;;
72301;SDS011;60235;52.234;5.186;2023-09-12T06:32:12;63.20;;;25.58;;
72301;SDS011;60235;52.234;5.186;2023-09-12T06:34:38;62.53;;;26.33;;
72301;SDS011;60235;52.234;5.186;2023-09-12T06:37:04;58.05;;;23.80;;
72301;SDS011;60235;52.234;5.186;2023-09-12T06:39:30;61.38;;;23.95;;
72301;SDS011;60235;52.234;5.186;2023-09-12T06:41:56;62.65;;;24.17;;
72301;SDS011;60235;52.234;5.186;2023-09-12T06:44:22;59.30;;;24.73;;
72301;SDS011;60235;52.234;5.186;2023-09-12T06:46:48;57.97;;;23.42;;
72301;SDS011;60235;52.234;5.186;2023-09-12T06:49:14;61.08;;;23.08;;
72301;SDS011;60235;52.234;5.186;2023-09-12T06:51:40;68.55;;;25.40;;
72301;SDS011;60235;52.234;5.186;2023-09-12T06:54:06;64.45;;;24.08;;
72301;SDS011;60235;52.234;5.186;2023-09-12T06:56:32;58.92;;;23.77;;
72301;SDS011;60235;52.234;5.186;2023-09-12T06:59:02;68.63;;;25.95;;
72301;SDS011;60235;52.234;5.186;2023-09-12T07:01:29;62.05;;;24.25;;
72301;SDS011;60235;52.234;5.186;2023-09-12T07:03:55;59.95;;;23.90;;
72301;SDS011;60235;52.234;5.186;2023-09-12T07:06:21;61.25;;;25.48;;
72301;SDS011;60235;52.234;5.186;2023-09-12T07:08:47;64.88;;;24.67;;
72301;SDS011;60235;52.234;5.186;2023-09-12T07:11:13;63.90;;;25.58;;
72301;SDS011;60235;52.234;5.186;2023-09-12T07:13:39;58.20;;;22.67;;
72301;SDS011;60235;52.234;5.186;2023-09-12T07:16:05;64.97;;;24.63;;
72301;SDS011;60235;52.234;5.186;2023-09-12T07:18:32;61.65;;;25.42;;
72301;SDS011;60235;52.234;5.186;2023-09-12T07:20:58;70.68;;;24.40;;
72301;SDS011;60235;52.234;5.186;2023-09-12T07:23:24;62.30;;;22.85;;
72301;SDS011;60235;52.234;5.186;2023-09-12T07:25:50;65.75;;;25.17;;
72301;SDS011;60235;52.234;5.186;2023-09-12T07:28:17;61.95;;;24.25;;
72301;SDS011;60235;52.234;5.186;2023-09-12T07:30:47;66.53;;;24.75;;
72301;SDS011;60235;52.234;5.186;2023-09-12T07:33:13;66.97;;;25.52;;
72301;SDS011;60235;52.234;5.186;2023-09-12T07:35:39;63.08;;;24.05;;
72301;SDS011;60235;52.234;5.186;2023-09-12T07:38:05;57.38;;;23.92;;
72301;SDS011;60235;52.234;5.186;2023-09-12T07:40:31;57.78;;;23.13;;
72301;SDS011;60235;52.234;5.186;2023-09-12T07:42:57;53.85;;;23.65;;
72301;SDS011;60235;52.234;5.186;2023-09-12T07:45:23;60.03;;;23.55;;
72301;SDS011;60235;52.234;5.186;2023-09-12T07:47:49;61.88;;;23.75;;
72301;SDS011;60235;52.234;5.186;2023-09-12T07:50:15;62.78;;;24.88;;
72301;SDS011;60235;52.234;5.186;2023-09-12T07:52:41;63.22;;;23.92;;
72301;SDS011;60235;52.234;5.186;2023-09-12T07:55:08;62.33;;;23.20;;
72301;SDS011;60235;52.234;5.186;2023-09-12T07:57:34;61.35;;;23.25;;
72301;SDS011;60235;52.234;5.186;2023-09-12T08:00:01;64.35;;;24.75;;
72301;SDS011;60235;52.234;5.186;2023-09-12T08:02:29;62.63;;;23.70;;
72301;SDS011;60235;52.234;5.186;2023-09-12T08:04:55;61.90;;;23.65;;
72301;SDS011;60235;52.234;5.186;2023-09-12T08:07:21;65.72;;;23.90;;
72301;SDS011;60235;52.234;5.186;2023-09-12T08:12:13;71.65;;;24.10;;
72301;SDS011;60235;52.234;5.186;2023-09-12T08:14:39;65.30;;;23.00;;
72301;SDS011;60235;52.234;5.186;2023-09-12T08:17:05;77.78;;;25.45;;
72301;SDS011;60235;52.234;5.186;2023-09-12T08:19:31;66.85;;;24.25;;
72301;SDS011;60235;52.234;5.186;2023-09-12T08:21:57;73.15;;;24.15;;
72301;SDS011;60235;52.234;5.186;2023-09-12T08:24:23;68.00;;;24.33;;
72301;SDS011;60235;52.234;5.186;2023-09-12T08:26:49;68.93;;;23.08;;
72301;SDS011;60235;52.234;5.186;2023-09-12T08:29:15;70.28;;;22.65;;
72301;SDS011;60235;52.234;5.186;2023-09-12T08:31:41;67.03;;;23.27;;
72301;SDS011;60235;52.234;5.186;2023-09-12T08:34:09;58.83;;;21.40;;
72301;SDS011;60235;52.234;5.186;2023-09-12T08:36:35;55.20;;;22.10;;
72301;SDS011;60235;52.234;5.186;2023-09-12T08:39:01;56.28;;;22.05;;
72301;SDS011;60235;52.234;5.186;2023-09-12T08:41:28;60.40;;;22.33;;
72301;SDS011;60235;52.234;5.186;2023-09-12T08:43:54;55.78;;;23.15;;
72301;SDS011;60235;52.234;5.186;2023-09-12T08:46:21;54.70;;;21.65;;
72301;SDS011;60235;52.234;5.186;2023-09-12T08:48:49;57.47;;;20.95;;
72301;SDS011;60235;52.234;5.186;2023-09-12T08:51:15;54.50;;;20.73;;
72301;SDS011;60235;52.234;5.186;2023-09-12T08:53:41;54.00;;;21.60;;
72301;SDS011;60235;52.234;5.186;2023-09-12T08:56:07;50.38;;;19.70;;
72301;SDS011;60235;52.234;5.186;2023-09-12T08:58:35;56.25;;;22.50;;
72301;SDS011;60235;52.234;5.186;2023-09-12T09:01:01;52.78;;;21.33;;
72301;SDS011;60235;52.234;5.186;2023-09-12T09:03:28;47.75;;;20.25;;
72301;SDS011;60235;52.234;5.186;2023-09-12T09:05:54;50.63;;;19.73;;
72301;SDS011;60235;52.234;5.186;2023-09-12T09:08:21;52.25;;;21.02;;
72301;SDS011;60235;52.234;5.186;2023-09-12T09:10:55;51.08;;;20.98;;
72301;SDS011;60235;52.234;5.186;2023-09-12T09:13:21;51.08;;;21.73;;
72301;SDS011;60235;52.234;5.186;2023-09-12T09:15:47;49.80;;;22.33;;
72301;SDS011;60235;52.234;5.186;2023-09-12T09:18:13;53.60;;;21.33;;
72301;SDS011;60235;52.234;5.186;2023-09-12T09:20:39;47.05;;;18.58;;
72301;SDS011;60235;52.234;5.186;2023-09-12T09:23:09;46.28;;;19.42;;
72301;SDS011;60235;52.234;5.186;2023-09-12T09:25:36;44.88;;;18.85;;
72301;SDS011;60235;52.234;5.186;2023-09-12T09:28:03;46.67;;;19.08;;
72301;SDS011;60235;52.234;5.186;2023-09-12T09:30:40;42.72;;;18.15;;
72301;SDS011;60235;52.234;5.186;2023-09-12T09:33:07;42.45;;;19.48;;
72301;SDS011;60235;52.234;5.186;2023-09-12T09:35:33;40.80;;;17.98;;
72301;SDS011;60235;52.234;5.186;2023-09-12T09:37:59;43.28;;;18.40;;
72301;SDS011;60235;52.234;5.186;2023-09-12T09:40:25;45.10;;;18.73;;
72301;SDS011;60235;52.234;5.186;2023-09-12T09:43:09;44.55;;;20.17;;
72301;SDS011;60235;52.234;5.186;2023-09-12T09:45:42;45.47;;;19.98;;
72301;SDS011;60235;52.234;5.186;2023-09-12T09:48:09;42.88;;;19.83;;
72301;SDS011;60235;52.234;5.186;2023-09-12T09:50:35;42.30;;;19.50;;
72301;SDS011;60235;52.234;5.186;2023-09-12T09:53:02;41.20;;;18.50;;
72301;SDS011;60235;52.234;5.186;2023-09-12T09:55:29;47.10;;;20.65;;
72301;SDS011;60235;52.234;5.186;2023-09-12T09:57:57;48.17;;;19.80;;
72301;SDS011;60235;52.234;5.186;2023-09-12T10:00:23;51.78;;;20.67;;
72301;SDS011;60235;52.234;5.186;2023-09-12T10:02:50;39.00;;;18.60;;
72301;SDS011;60235;52.234;5.186;2023-09-12T10:05:17;44.42;;;20.70;;
72301;SDS011;60235;52.234;5.186;2023-09-12T10:07:44;44.97;;;19.80;;
72301;SDS011;60235;52.234;5.186;2023-09-12T10:10:12;43.20;;;20.38;;
72301;SDS011;60235;52.234;5.186;2023-09-12T10:12:41;36.80;;;17.75;;
72301;SDS011;60235;52.234;5.186;2023-09-12T10:15:09;35.47;;;17.55;;
72301;SDS011;60235;52.234;5.186;2023-09-12T10:17:36;39.75;;;18.80;;
72301;SDS011;60235;52.234;5.186;2023-09-12T10:20:03;38.17;;;18.48;;
72301;SDS011;60235;52.234;5.186;2023-09-12T10:22:31;34.50;;;16.33;;
72301;SDS011;60235;52.234;5.186;2023-09-12T10:24:58;40.08;;;19.25;;
72301;SDS011;60235;52.234;5.186;2023-09-12T10:27:24;39.10;;;18.00;;
72301;SDS011;60235;52.234;5.186;2023-09-12T10:29:51;36.22;;;16.70;;
72301;SDS011;60235;52.234;5.186;2023-09-12T10:32:18;35.83;;;16.75;;
72301;SDS011;60235;52.234;5.186;2023-09-12T10:34:45;39.25;;;17.20;;
72301;SDS011;60235;52.234;5.186;2023-09-12T10:37:12;35.97;;;16.05;;
72301;SDS011;60235;52.234;5.186;2023-09-12T10:39:40;36.10;;;15.93;;
72301;SDS011;60235;52.234;5.186;2023-09-12T10:42:09;31.65;;;15.52;;
72301;SDS011;60235;52.234;5.186;2023-09-12T10:44:37;38.83;;;17.60;;
72301;SDS011;60235;52.234;5.186;2023-09-12T10:47:03;35.63;;;15.77;;
72301;SDS011;60235;52.234;5.186;2023-09-12T10:49:30;32.75;;;16.30;;
72301;SDS011;60235;52.234;5.186;2023-09-12T10:51:56;33.38;;;15.95;;
72301;SDS011;60235;52.234;5.186;2023-09-12T10:54:23;36.42;;;16.55;;
72301;SDS011;60235;52.234;5.186;2023-09-12T10:57:02;29.13;;;14.90;;
72301;SDS011;60235;52.234;5.186;2023-09-12T10:59:28;33.50;;;14.95;;
72301;SDS011;60235;52.234;5.186;2023-09-12T11:04:45;29.35;;;13.15;;
72301;SDS011;60235;52.234;5.186;2023-09-12T11:12:43;24.02;;;11.63;;
72301;SDS011;60235;52.234;5.186;2023-09-12T11:15:09;23.50;;;11.25;;
72301;SDS011;60235;52.234;5.186;2023-09-12T11:20:05;21.48;;;11.02;;
72301;SDS011;60235;52.234;5.186;2023-09-12T11:22:38;24.13;;;11.60;;
72301;SDS011;60235;52.234;5.186;2023-09-12T11:25:05;26.83;;;11.75;;
72301;SDS011;60235;52.234;5.186;2023-09-12T11:27:32;28.67;;;13.82;;
72301;SDS011;60235;52.234;5.186;2023-09-12T11:30:04;22.85;;;10.55;;
72301;SDS011;60235;52.234;5.186;2023-09-12T11:32:31;19.27;;;10.18;;
72301;SDS011;60235;52.234;5.186;2023-09-12T11:34:59;21.35;;;11.50;;
72301;SDS011;60235;52.234;5.186;2023-09-12T11:37:25;22.17;;;11.70;;
72301;SDS011;60235;52.234;5.186;2023-09-12T11:39:52;22.13;;;10.57;;
72301;SDS011;60235;52.234;5.186;2023-09-12T11:42:18;23.08;;;10.82;;
72301;SDS011;60235;52.234;5.186;2023-09-12T11:44:46;22.67;;;11.25;;
72301;SDS011;60235;52.234;5.186;2023-09-12T11:47:12;25.70;;;11.82;;
72301;SDS011;60235;52.234;5.186;2023-09-12T11:49:39;25.95;;;12.48;;
72301;SDS011;60235;52.234;5.186;2023-09-12T11:52:09;26.33;;;12.07;;
72301;SDS011;60235;52.234;5.186;2023-09-12T11:54:37;25.10;;;11.95;;
72301;SDS011;60235;52.234;5.186;2023-09-12T11:57:03;23.58;;;10.60;;
72301;SDS011;60235;52.234;5.186;2023-09-12T11:59:29;23.30;;;12.60;;
72301;SDS011;60235;52.234;5.186;2023-09-12T12:01:55;21.63;;;11.25;;
72301;SDS011;60235;52.234;5.186;2023-09-12T12:04:22;22.85;;;10.15;;
72301;SDS011;60235;52.234;5.186;2023-09-12T12:06:49;20.65;;;9.43;;
72301;SDS011;60235;52.234;5.186;2023-09-12T12:09:16;18.60;;;8.15;;
72301;SDS011;60235;52.234;5.186;2023-09-12T12:11:46;17.63;;;7.75;;
72301;SDS011;60235;52.234;5.186;2023-09-12T12:14:16;12.88;;;6.72;;
72301;SDS011;60235;52.234;5.186;2023-09-12T12:16:42;15.68;;;7.43;;
72301;SDS011;60235;52.234;5.186;2023-09-12T12:19:11;15.43;;;8.15;;
72301;SDS011;60235;52.234;5.186;2023-09-12T12:21:41;18.50;;;8.90;;
72301;SDS011;60235;52.234;5.186;2023-09-12T12:24:09;23.40;;;10.25;;
72301;SDS011;60235;52.234;5.186;2023-09-12T12:26:35;22.10;;;9.75;;
72301;SDS011;60235;52.234;5.186;2023-09-12T12:29:03;16.17;;;7.60;;
72301;SDS011;60235;52.234;5.186;2023-09-12T12:31:29;11.65;;;5.90;;
72301;SDS011;60235;52.234;5.186;2023-09-12T12:33:56;14.50;;;5.18;;
72301;SDS011;60235;52.234;5.186;2023-09-12T12:36:24;11.27;;;4.03;;
72301;SDS011;60235;52.234;5.186;2023-09-12T12:38:51;12.32;;;5.03;;
72301;SDS011;60235;52.234;5.186;2023-09-12T12:41:26;17.83;;;7.38;;
72301;SDS011;60235;52.234;5.186;2023-09-12T12:43:53;14.95;;;6.43;;
72301;SDS011;60235;52.234;5.186;2023-09-12T12:46:25;13.98;;;7.00;;
72301;SDS011;60235;52.234;5.186;2023-09-12T12:48:51;15.27;;;7.57;;
72301;SDS011;60235;52.234;5.186;2023-09-12T12:51:22;19.63;;;8.73;;
72301;SDS011;60235;52.234;5.186;2023-09-12T12:53:49;21.30;;;10.23;;
72301;SDS011;60235;52.234;5.186;2023-09-12T12:56:16;24.10;;;10.95;;
72301;SDS011;60235;52.234;5.186;2023-09-12T12:58:50;23.50;;;11.35;;
72301;SDS011;60235;52.234;5.186;2023-09-12T13:01:17;24.50;;;12.43;;
72301;SDS011;60235;52.234;5.186;2023-09-12T13:03:43;30.58;;;13.02;;
72301;SDS011;60235;52.234;5.186;2023-09-12T13:06:10;26.77;;;13.95;;
72301;SDS011;60235;52.234;5.186;2023-09-12T13:08:40;33.60;;;14.95;;
72301;SDS011;60235;52.234;5.186;2023-09-12T13:11:07;31.50;;;15.50;;
72301;SDS011;60235;52.234;5.186;2023-09-12T13:13:33;32.83;;;17.10;;
72301;SDS011;60235;52.234;5.186;2023-09-12T13:15:59;37.08;;;17.52;;
72301;SDS011;60235;52.234;5.186;2023-09-12T13:18:25;34.50;;;16.60;;
72301;SDS011;60235;52.234;5.186;2023-09-12T13:20:51;23.40;;;10.13;;
72301;SDS011;60235;52.234;5.186;2023-09-12T13:23:17;22.00;;;9.35;;
72301;SDS011;60235;52.234;5.186;2023-09-12T13:25:44;24.38;;;10.70;;
72301;SDS011;60235;52.234;5.186;2023-09-12T13:28:10;18.70;;;9.95;;
72301;SDS011;60235;52.234;5.186;2023-09-12T13:30:36;19.90;;;10.23;;
72301;SDS011;60235;52.234;5.186;2023-09-12T13:33:02;18.60;;;8.90;;
72301;SDS011;60235;52.234;5.186;2023-09-12T13:35:28;16.25;;;8.23;;
72301;SDS011;60235;52.234;5.186;2023-09-12T13:37:55;10.55;;;4.95;;
72301;SDS011;60235;52.234;5.186;2023-09-12T13:40:21;14.02;;;5.70;;
72301;SDS011;60235;52.234;5.186;2023-09-12T13:42:47;14.27;;;6.55;;
72301;SDS011;60235;52.234;5.186;2023-09-12T13:45:12;18.35;;;9.23;;
72301;SDS011;60235;52.234;5.186;2023-09-12T13:47:39;18.80;;;9.68;;
72301;SDS011;60235;52.234;5.186;2023-09-12T13:50:06;20.73;;;10.23;;
72301;SDS011;60235;52.234;5.186;2023-09-12T13:52:32;19.75;;;9.40;;
72301;SDS011;60235;52.234;5.186;2023-09-12T13:54:58;21.10;;;10.63;;
72301;SDS011;60235;52.234;5.186;2023-09-12T13:57:28;22.88;;;12.43;;
72301;SDS011;60235;52.234;5.186;2023-09-12T13:59:54;26.17;;;12.80;;
72301;SDS011;60235;52.234;5.186;2023-09-12T14:02:20;17.08;;;7.93;;
72301;SDS011;60235;52.234;5.186;2023-09-12T14:04:46;14.10;;;7.22;;
72301;SDS011;60235;52.234;5.186;2023-09-12T14:07:12;16.08;;;8.90;;
72301;SDS011;60235;52.234;5.186;2023-09-12T14:09:38;18.77;;;8.95;;
72301;SDS011;60235;52.234;5.186;2023-09-12T14:12:05;18.45;;;9.38;;
72301;SDS011;60235;52.234;5.186;2023-09-12T14:14:31;17.73;;;8.18;;
72301;SDS011;60235;52.234;5.186;2023-09-12T14:16:57;15.05;;;7.35;;
72301;SDS011;60235;52.234;5.186;2023-09-12T14:19:23;13.43;;;7.07;;
72301;SDS011;60235;52.234;5.186;2023-09-12T14:21:49;14.18;;;7.07;;
72301;SDS011;60235;52.234;5.186;2023-09-12T14:24:15;13.82;;;7.00;;
72301;SDS011;60235;52.234;5.186;2023-09-12T14:26:41;13.25;;;6.45;;
72301;SDS011;60235;52.234;5.186;2023-09-12T14:29:07;16.25;;;7.47;;
72301;SDS011;60235;52.234;5.186;2023-09-12T14:31:33;16.33;;;7.43;;
72301;SDS011;60235;52.234;5.186;2023-09-12T14:34:01;10.52;;;6.05;;
72301;SDS011;60235;52.234;5.186;2023-09-12T14:36:28;11.65;;;5.38;;
72301;SDS011;60235;52.234;5.186;2023-09-12T14:38:55;14.52;;;6.45;;